createdAt,value
2019-03-30T00:00:30.003Z,9.60
2019-03-30T00:02:57.774Z,9.60
2019-03-30T00:05:25.336Z,9.60
2019-03-30T00:07:52.917Z,9.60
2019-03-30T00:10:20.607Z,9.60
2019-03-30T00:12:48.262Z,9.60
2019-03-30T00:15:15.948Z,9.50
2019-03-30T00:17:43.681Z,9.40
2019-03-30T00:20:11.178Z,9.40
2019-03-30T00:22:38.829Z,9.40
2019-03-30T00:25:08.151Z,9.40
2019-03-30T00:27:35.813Z,9.40
2019-03-30T00:30:04.853Z,9.30
2019-03-30T00:32:32.556Z,9.30
2019-03-30T00:35:00.391Z,9.30
2019-03-30T00:37:28.140Z,9.30
2019-03-30T00:39:55.724Z,9.20
2019-03-30T00:42:23.217Z,9.20
2019-03-30T00:44:50.748Z,9.20
2019-03-30T00:47:18.195Z,9.20
2019-03-30T00:49:49.633Z,9.20
2019-03-30T00:52:15.054Z,9.20
2019-03-30T00:54:42.607Z,9.20
2019-03-30T00:57:10.095Z,9.10
2019-03-30T00:59:37.562Z,9.10
2019-03-30T01:02:05.047Z,9.10
2019-03-30T01:04:32.649Z,9.00
2019-03-30T01:07:00.121Z,9.00
2019-03-30T01:09:27.566Z,9.00
2019-03-30T01:11:55.227Z,9.00
2019-03-30T01:14:22.740Z,8.90
2019-03-30T01:16:50.350Z,9.00
2019-03-30T01:19:18.163Z,8.90
2019-03-30T01:21:45.776Z,8.90
2019-03-30T01:24:13.275Z,8.80
2019-03-30T01:26:40.968Z,8.80
2019-03-30T01:29:08.504Z,8.80
2019-03-30T01:31:36.174Z,8.80
2019-03-30T01:34:03.685Z,8.70
2019-03-30T01:36:31.117Z,8.70
2019-03-30T01:38:58.641Z,8.70
2019-03-30T01:41:26.120Z,8.70
2019-03-30T01:43:53.560Z,8.70
2019-03-30T01:46:21.098Z,8.70
2019-03-30T01:48:48.657Z,8.60
2019-03-30T01:51:16.166Z,8.60
2019-03-30T01:53:43.670Z,8.60
2019-03-30T01:56:11.232Z,8.60
2019-03-30T01:58:38.673Z,8.60
2019-03-30T02:01:06.384Z,8.60
2019-03-30T02:03:33.964Z,8.50
2019-03-30T02:06:01.536Z,8.50
2019-03-30T02:08:29.023Z,8.40
2019-03-30T02:10:56.451Z,8.40
2019-03-30T02:13:24.101Z,8.40
2019-03-30T02:15:51.567Z,8.40
2019-03-30T02:18:19.177Z,8.40
2019-03-30T02:20:47.161Z,8.40
2019-03-30T02:23:15.049Z,8.30
2019-03-30T02:25:42.576Z,8.30
2019-03-30T02:28:10.395Z,8.30
2019-03-30T02:30:38.004Z,8.30
2019-03-30T02:33:05.576Z,8.30
2019-03-30T02:35:33.240Z,8.30
2019-03-30T02:38:00.857Z,8.30
2019-03-30T02:40:28.750Z,8.30
2019-03-30T02:42:56.282Z,8.30
2019-03-30T02:45:23.772Z,8.20
2019-03-30T02:47:51.376Z,8.20
2019-03-30T02:50:20.651Z,8.20
2019-03-30T02:52:48.196Z,8.20
2019-03-30T02:55:16.039Z,8.10
2019-03-30T02:57:43.754Z,8.20
2019-03-30T03:00:15.640Z,8.10
2019-03-30T03:02:43.161Z,8.10
2019-03-30T03:05:11.706Z,8.10
2019-03-30T03:07:39.136Z,8.10
2019-03-30T03:10:07.467Z,8.00
2019-03-30T03:12:35.010Z,8.00
2019-03-30T03:15:03.764Z,7.90
2019-03-30T03:17:31.391Z,7.90
2019-03-30T03:19:59.189Z,7.90
2019-03-30T03:22:26.693Z,7.90
2019-03-30T03:24:54.313Z,7.90
2019-03-30T03:27:21.782Z,7.90
2019-03-30T03:29:49.237Z,7.80
2019-03-30T03:32:16.840Z,7.80
2019-03-30T03:34:44.480Z,7.70
2019-03-30T03:37:12.100Z,7.70
2019-03-30T03:39:39.659Z,7.70
2019-03-30T03:42:07.272Z,7.70
2019-03-30T03:44:34.902Z,7.60
2019-03-30T03:47:02.646Z,7.60
2019-03-30T03:49:30.312Z,7.50
2019-03-30T03:51:59.298Z,7.50
2019-03-30T03:54:27.348Z,7.50
2019-03-30T03:56:56.312Z,7.40
2019-03-30T03:59:26.066Z,7.40
2019-03-30T04:01:54.631Z,7.40
2019-03-30T04:04:24.146Z,7.40
2019-03-30T04:06:53.070Z,7.40
2019-03-30T04:09:24.445Z,7.40
2019-03-30T04:11:53.730Z,7.40
2019-03-30T04:14:24.577Z,7.40
2019-03-30T04:16:52.112Z,7.40
2019-03-30T04:19:19.641Z,7.40
2019-03-30T04:21:47.303Z,7.40
2019-03-30T04:24:15.072Z,7.40
2019-03-30T04:26:42.633Z,7.30
2019-03-30T04:29:10.219Z,7.30
2019-03-30T04:31:37.766Z,7.30
2019-03-30T04:34:05.317Z,7.30
2019-03-30T04:36:32.768Z,7.20
2019-03-30T04:39:00.287Z,7.20
2019-03-30T04:41:27.899Z,7.10
2019-03-30T04:43:55.388Z,7.10
2019-03-30T04:46:22.949Z,7.10
2019-03-30T04:48:50.623Z,7.10
2019-03-30T04:51:18.088Z,7.10
2019-03-30T04:53:45.549Z,7.00
2019-03-30T04:56:13.010Z,6.90
2019-03-30T04:58:40.500Z,6.90
2019-03-30T05:01:08.162Z,6.90
2019-03-30T05:03:35.903Z,6.90
2019-03-30T05:06:03.365Z,6.90
2019-03-30T05:08:30.895Z,6.80
2019-03-30T05:10:59.605Z,6.90
2019-03-30T05:13:27.170Z,6.90
2019-03-30T05:15:54.826Z,6.90
2019-03-30T05:18:22.413Z,6.80
2019-03-30T05:20:49.936Z,6.80
2019-03-30T05:23:17.465Z,6.80
2019-03-30T05:25:45.181Z,6.80
2019-03-30T05:28:12.814Z,6.80
2019-03-30T05:30:40.374Z,6.80
2019-03-30T05:33:07.929Z,6.80
2019-03-30T05:35:37.233Z,6.80
2019-03-30T05:38:04.812Z,6.90
2019-03-30T05:40:32.470Z,6.90
2019-03-30T05:43:00.092Z,6.90
2019-03-30T05:45:27.674Z,6.90
2019-03-30T05:47:55.289Z,6.90
2019-03-30T05:50:24.532Z,6.90
2019-03-30T05:52:52.105Z,6.90
2019-03-30T05:55:20.874Z,7.00
2019-03-30T05:57:48.388Z,6.90
2019-03-30T06:00:18.296Z,7.00
2019-03-30T06:02:45.893Z,7.00
2019-03-30T06:05:13.567Z,7.10
2019-03-30T06:07:41.165Z,7.10
2019-03-30T06:10:08.987Z,7.10
2019-03-30T06:12:36.540Z,7.10
2019-03-30T06:15:04.265Z,7.10
2019-03-30T06:17:31.941Z,7.20
2019-03-30T06:19:59.561Z,7.30
2019-03-30T06:22:39.712Z,7.30
2019-03-30T06:24:57.567Z,7.40
2019-03-30T06:27:25.153Z,7.40
2019-03-30T06:30:15.005Z,7.40
2019-03-30T06:32:43.266Z,7.50
2019-03-30T06:35:12.851Z,7.60
2019-03-30T06:37:40.500Z,7.70
2019-03-30T06:40:09.368Z,7.70
2019-03-30T06:42:37.096Z,7.80
2019-03-30T06:45:05.376Z,7.90
2019-03-30T06:47:32.835Z,8.00
2019-03-30T06:50:00.739Z,8.10
2019-03-30T06:52:28.331Z,8.10
2019-03-30T06:54:55.994Z,8.30
2019-03-30T06:57:27.224Z,8.40
2019-03-30T06:59:54.890Z,8.40
2019-03-30T07:02:24.473Z,8.50
2019-03-30T07:04:52.157Z,8.60
2019-03-30T07:07:22.157Z,8.70
2019-03-30T07:09:51.696Z,8.80
2019-03-30T07:12:22.421Z,8.80
2019-03-30T07:14:52.312Z,8.90
2019-03-30T07:17:20.248Z,9.00
2019-03-30T07:19:51.451Z,9.10
2019-03-30T07:22:19.014Z,9.20
2019-03-30T07:24:49.085Z,9.20
2019-03-30T07:27:17.781Z,9.30
2019-03-30T07:29:45.368Z,9.40
2019-03-30T07:32:13.040Z,9.50
2019-03-30T07:34:41.802Z,9.60
2019-03-30T07:37:09.760Z,9.70
2019-03-30T07:39:37.245Z,9.80
2019-03-30T07:42:04.844Z,9.90
2019-03-30T07:44:32.419Z,10.00
2019-03-30T07:47:00.031Z,10.10
2019-03-30T07:49:27.613Z,10.20
2019-03-30T07:51:55.236Z,10.30
2019-03-30T07:54:22.775Z,10.40
2019-03-30T07:57:03.913Z,11.80
2019-03-30T07:59:19.944Z,14.50
2019-03-30T08:01:47.388Z,17.70
2019-03-30T08:04:14.991Z,20.40
2019-03-30T08:06:42.441Z,22.20
2019-03-30T08:09:10.127Z,21.70
2019-03-30T08:11:37.718Z,21.00
2019-03-30T08:14:05.310Z,22.00
2019-03-30T08:16:32.888Z,23.40
2019-03-30T08:19:00.564Z,23.70
2019-03-30T08:21:28.100Z,23.40
2019-03-30T08:23:55.703Z,23.80
2019-03-30T08:26:23.272Z,24.60
2019-03-30T08:31:18.118Z,25.80
2019-03-30T08:33:45.819Z,25.80
2019-03-30T08:36:13.421Z,25.80
2019-03-30T08:38:42.980Z,26.00
2019-03-30T08:41:10.942Z,26.10
2019-03-30T08:43:38.536Z,25.10
2019-03-30T08:46:06.317Z,24.80
2019-03-30T08:48:33.878Z,23.50
2019-03-30T08:51:01.448Z,21.90
2019-03-30T08:53:28.966Z,20.70
2019-03-30T08:55:56.662Z,19.80
2019-03-30T08:58:26.265Z,18.80
2019-03-30T09:00:53.886Z,18.20
2019-03-30T09:03:21.381Z,17.50
2019-03-30T09:05:49.123Z,17.30
2019-03-30T09:08:16.912Z,17.10
2019-03-30T09:10:44.643Z,16.80
2019-03-30T09:13:12.184Z,16.60
2019-03-30T09:15:39.732Z,16.40
2019-03-30T09:18:08.857Z,16.20
2019-03-30T09:20:36.376Z,16.20
2019-03-30T09:23:03.921Z,16.10
2019-03-30T09:25:31.522Z,16.10
2019-03-30T09:27:59.267Z,16.00
2019-03-30T09:30:27.034Z,16.00
2019-03-30T09:32:55.856Z,16.10
2019-03-30T09:35:23.565Z,16.10
2019-03-30T09:37:51.600Z,16.10
2019-03-30T09:40:19.250Z,16.10
2019-03-30T09:42:46.817Z,16.00
2019-03-30T09:45:14.434Z,16.10
2019-03-30T09:47:42.274Z,16.10
2019-03-30T09:50:10.364Z,16.10
2019-03-30T09:52:38.338Z,16.20
2019-03-30T09:55:06.529Z,16.10
2019-03-30T09:57:34.075Z,16.10
2019-03-30T10:00:01.795Z,16.20
2019-03-30T10:02:29.512Z,16.20
2019-03-30T10:04:57.089Z,16.20
2019-03-30T10:07:24.613Z,16.30
2019-03-30T10:09:52.121Z,16.30
2019-03-30T10:12:19.773Z,16.40
2019-03-30T10:14:47.376Z,16.40
2019-03-30T10:17:15.102Z,16.50
2019-03-30T10:19:42.905Z,16.50
2019-03-30T10:22:10.604Z,16.50
2019-03-30T10:24:39.912Z,16.50
2019-03-30T10:27:07.540Z,16.60
2019-03-30T10:29:35.153Z,16.60
2019-03-30T10:32:02.850Z,16.60
2019-03-30T10:34:30.618Z,16.70
2019-03-30T10:36:58.686Z,16.70
2019-03-30T10:39:26.233Z,16.70
2019-03-30T10:41:53.841Z,16.70
2019-03-30T10:44:21.789Z,16.70
2019-03-30T10:46:49.522Z,16.70
2019-03-30T10:49:17.120Z,16.70
2019-03-30T10:51:44.718Z,16.70
2019-03-30T10:54:12.337Z,16.80
2019-03-30T10:56:39.950Z,16.80
2019-03-30T10:59:07.539Z,16.80
2019-03-30T11:01:35.123Z,16.80
2019-03-30T11:04:02.764Z,16.80
2019-03-30T11:06:30.347Z,16.90
2019-03-30T11:08:57.874Z,17.00
2019-03-30T11:11:27.721Z,17.00
2019-03-30T11:13:56.204Z,16.90
2019-03-30T11:16:23.706Z,17.00
2019-03-30T11:18:51.479Z,17.00
2019-03-30T11:21:19.315Z,17.00
2019-03-30T11:23:46.928Z,17.00
2019-03-30T11:26:14.553Z,17.00
2019-03-30T11:28:42.116Z,17.00
2019-03-30T11:31:09.706Z,17.10
2019-03-30T11:33:37.642Z,17.10
2019-03-30T11:36:06.730Z,17.10
2019-03-30T11:38:34.847Z,17.10
2019-03-30T11:41:03.129Z,17.10
2019-03-30T11:43:31.160Z,17.10
2019-03-30T11:45:59.176Z,17.10
2019-03-30T11:48:27.106Z,17.10
2019-03-30T11:50:54.992Z,17.10
2019-03-30T11:53:23.149Z,17.10
2019-03-30T11:56:03.187Z,17.20
2019-03-30T11:58:30.981Z,17.20
2019-03-30T12:00:58.879Z,17.20
2019-03-30T12:03:27.768Z,17.20
2019-03-30T12:05:55.846Z,17.30
2019-03-30T12:08:23.873Z,17.30
2019-03-30T12:10:51.866Z,17.30
2019-03-30T12:13:20.073Z,17.30
2019-03-30T12:15:48.431Z,17.40
2019-03-30T12:18:16.960Z,17.50
2019-03-30T12:20:45.241Z,17.50
2019-03-30T12:23:13.785Z,17.50
2019-03-30T12:25:41.725Z,17.50
2019-03-30T12:28:09.232Z,17.50
2019-03-30T12:30:36.828Z,17.50
2019-03-30T12:33:04.322Z,17.60
2019-03-30T12:35:31.813Z,17.60
2019-03-30T12:37:59.393Z,17.60
2019-03-30T12:40:26.922Z,17.70
2019-03-30T12:42:54.468Z,17.70
2019-03-30T12:45:22.031Z,17.80
2019-03-30T12:47:49.545Z,17.80
2019-03-30T12:50:17.202Z,17.90
2019-03-30T12:52:44.785Z,17.90
2019-03-30T12:55:12.252Z,18.00
2019-03-30T12:57:40.143Z,18.00
2019-03-30T13:00:09.091Z,18.10
2019-03-30T13:02:36.693Z,18.20
2019-03-30T13:05:07.449Z,18.30
2019-03-30T13:07:35.243Z,18.40
2019-03-30T13:10:03.669Z,18.50
2019-03-30T13:12:31.337Z,18.60
2019-03-30T13:15:00.377Z,18.60
2019-03-30T13:17:27.896Z,18.70
2019-03-30T13:19:55.434Z,18.70
2019-03-30T13:22:23.015Z,18.80
2019-03-30T13:24:50.647Z,18.90
2019-03-30T13:27:18.146Z,18.90
2019-03-30T13:29:45.680Z,18.90
2019-03-30T13:32:13.120Z,18.90
2019-03-30T13:34:40.739Z,18.90
2019-03-30T13:37:21.068Z,18.90
2019-03-30T13:39:48.833Z,18.90
2019-03-30T13:42:16.317Z,18.90
2019-03-30T13:44:43.854Z,18.90
2019-03-30T13:47:11.468Z,18.90
2019-03-30T13:49:39.212Z,19.00
2019-03-30T13:52:06.908Z,19.10
2019-03-30T13:54:34.677Z,19.20
2019-03-30T13:57:02.294Z,19.30
2019-03-30T13:59:29.979Z,19.30
2019-03-30T14:01:57.558Z,19.30
2019-03-30T14:04:25.294Z,19.20
2019-03-30T14:06:52.855Z,19.20
2019-03-30T14:09:22.022Z,19.30
2019-03-30T14:11:49.814Z,19.30
2019-03-30T14:14:17.447Z,19.30
2019-03-30T14:16:45.077Z,19.30
2019-03-30T14:19:12.698Z,19.30
2019-03-30T14:21:40.214Z,19.30
2019-03-30T14:24:07.826Z,19.30
2019-03-30T14:26:35.289Z,19.30
2019-03-30T14:29:03.010Z,19.30
2019-03-30T14:31:30.592Z,19.30
2019-03-30T14:33:58.221Z,19.30
2019-03-30T14:36:25.717Z,19.30
2019-03-30T14:38:53.190Z,19.40
2019-03-30T14:41:20.836Z,19.40
2019-03-30T14:43:48.534Z,19.40
2019-03-30T14:46:16.066Z,19.40
2019-03-30T14:48:43.716Z,19.40
2019-03-30T14:51:11.308Z,19.40
2019-03-30T14:53:38.936Z,19.30
2019-03-30T14:56:06.527Z,19.30
2019-03-30T14:58:34.165Z,19.30
2019-03-30T15:01:03.332Z,19.40
2019-03-30T15:03:31.012Z,19.50
2019-03-30T15:05:58.473Z,19.60
2019-03-30T15:08:25.988Z,19.60
2019-03-30T15:10:53.655Z,19.70
2019-03-30T15:13:21.291Z,19.70
2019-03-30T15:15:48.820Z,19.50
2019-03-30T15:18:16.474Z,19.40
2019-03-30T15:20:44.056Z,19.40
2019-03-30T15:23:11.678Z,19.30
2019-03-30T15:25:39.279Z,19.20
2019-03-30T15:28:06.886Z,19.10
2019-03-30T15:30:34.523Z,19.10
2019-03-30T15:33:03.509Z,19.00
2019-03-30T15:35:31.243Z,19.00
2019-03-30T15:37:58.751Z,19.00
2019-03-30T15:40:26.353Z,19.20
2019-03-30T15:42:53.802Z,19.30
2019-03-30T15:45:21.293Z,19.30
2019-03-30T15:48:11.397Z,19.30
2019-03-30T15:50:39.071Z,19.30
2019-03-30T15:53:20.694Z,19.30
2019-03-30T15:55:48.278Z,19.40
2019-03-30T15:58:15.880Z,19.40
2019-03-30T16:00:43.481Z,19.40
2019-03-30T16:03:11.101Z,19.40
2019-03-30T16:05:38.703Z,19.40
2019-03-30T16:08:06.284Z,19.30
2019-03-30T16:10:33.901Z,19.30
2019-03-30T16:13:02.391Z,19.30
2019-03-30T16:15:29.854Z,19.20
2019-03-30T16:17:57.333Z,19.20
2019-03-30T16:20:24.887Z,19.10
2019-03-30T16:22:52.404Z,19.10
2019-03-30T16:25:19.998Z,19.10
2019-03-30T16:27:47.545Z,19.00
2019-03-30T16:30:15.528Z,18.90
2019-03-30T16:32:43.085Z,18.90
2019-03-30T16:35:10.718Z,18.90
2019-03-30T16:37:38.356Z,18.90
2019-03-30T16:40:06.475Z,18.90
2019-03-30T16:42:34.028Z,18.80
2019-03-30T16:45:01.568Z,18.80
2019-03-30T16:47:29.100Z,18.80
2019-03-30T16:49:56.614Z,18.80
2019-03-30T16:52:24.233Z,18.70
2019-03-30T16:54:51.913Z,18.70
2019-03-30T16:57:19.525Z,18.70
2019-03-30T16:59:47.009Z,18.70
2019-03-30T17:02:14.441Z,18.70
2019-03-30T17:04:42.091Z,18.70
2019-03-30T17:07:09.659Z,18.70
2019-03-30T17:09:37.198Z,18.70
2019-03-30T17:12:04.873Z,18.60
2019-03-30T17:14:32.310Z,18.60
2019-03-30T17:16:59.900Z,18.60
2019-03-30T17:19:28.885Z,18.60
2019-03-30T17:21:56.502Z,18.60
2019-03-30T17:24:24.039Z,18.50
2019-03-30T17:26:51.466Z,18.50
2019-03-30T17:29:19.055Z,18.40
2019-03-30T17:31:46.615Z,18.40
2019-03-30T17:34:14.106Z,18.30
2019-03-30T17:36:41.553Z,18.20
2019-03-30T17:39:10.671Z,18.20
2019-03-30T17:41:38.204Z,18.10
2019-03-30T17:44:05.859Z,18.10
2019-03-30T17:46:33.382Z,18.00
2019-03-30T17:49:00.972Z,17.90
2019-03-30T17:51:28.530Z,17.90
2019-03-30T17:53:56.435Z,17.80
2019-03-30T17:56:24.061Z,17.80
2019-03-30T17:58:51.984Z,17.70
2019-03-30T18:01:19.786Z,17.70
2019-03-30T18:03:47.353Z,17.70
2019-03-30T18:06:15.011Z,17.70
2019-03-30T18:08:42.664Z,17.60
2019-03-30T18:11:10.229Z,17.60
2019-03-30T18:13:37.704Z,17.60
2019-03-30T18:16:05.416Z,17.50
2019-03-30T18:18:33.579Z,17.40
2019-03-30T18:21:01.592Z,17.40
2019-03-30T18:23:29.514Z,17.30
2019-03-30T18:25:57.679Z,17.20
2019-03-30T18:28:27.322Z,17.20
2019-03-30T18:30:55.671Z,17.10
2019-03-30T18:33:23.852Z,17.00
2019-03-30T18:35:52.267Z,16.90
2019-03-30T18:38:20.081Z,16.90
2019-03-30T18:40:47.882Z,16.80
2019-03-30T18:43:15.818Z,16.70
2019-03-30T18:45:43.437Z,16.70
2019-03-30T18:48:17.570Z,16.60
2019-03-30T18:50:45.841Z,16.50
2019-03-30T18:53:14.221Z,16.50
2019-03-30T18:55:41.861Z,16.40
2019-03-30T18:58:09.692Z,16.40
2019-03-30T19:00:37.344Z,16.30
2019-03-30T19:03:05.282Z,16.20
2019-03-30T19:05:32.993Z,16.20
2019-03-30T19:08:00.936Z,16.20
2019-03-30T19:10:28.976Z,16.10
2019-03-30T19:12:56.705Z,16.00
2019-03-30T19:15:32.076Z,16.00
2019-03-30T19:17:59.739Z,15.90
2019-03-30T19:20:27.535Z,15.90
2019-03-30T19:22:55.080Z,15.80
2019-03-30T19:25:22.905Z,15.80
2019-03-30T19:27:50.726Z,15.70
2019-03-30T19:30:18.938Z,15.60
2019-03-30T19:32:46.525Z,15.60
2019-03-30T19:35:14.266Z,15.50
2019-03-30T19:37:42.024Z,15.40
2019-03-30T19:40:09.691Z,15.40
2019-03-30T19:42:37.240Z,15.30
2019-03-30T19:45:05.405Z,15.30
2019-03-30T19:47:33.148Z,15.20
2019-03-30T19:50:00.767Z,15.20
2019-03-30T19:52:39.234Z,15.10
2019-03-30T19:54:58.015Z,15.00
2019-03-30T19:57:27.690Z,15.00
2019-03-30T19:59:55.045Z,15.00
2019-03-30T20:02:22.594Z,15.00
2019-03-30T20:04:50.292Z,14.90
2019-03-30T20:07:18.211Z,14.80
2019-03-30T20:09:45.827Z,14.80
2019-03-30T20:12:13.830Z,14.70
2019-03-30T20:14:41.559Z,14.70
2019-03-30T20:17:09.246Z,14.70
2019-03-30T20:19:36.833Z,14.60
2019-03-30T20:22:05.413Z,14.50
2019-03-30T20:24:33.910Z,14.50
2019-03-30T20:27:02.030Z,14.50
2019-03-30T20:29:31.408Z,14.40
2019-03-30T20:31:59.563Z,14.30
2019-03-30T20:34:27.706Z,14.30
2019-03-30T20:36:55.758Z,14.30
2019-03-30T20:39:23.872Z,14.30
2019-03-30T20:41:53.350Z,14.30
2019-03-30T20:44:21.154Z,14.20
2019-03-30T20:46:48.732Z,14.20
2019-03-30T20:49:16.405Z,14.20
2019-03-30T20:51:44.076Z,14.10
2019-03-30T20:54:11.645Z,14.10
2019-03-30T20:56:40.080Z,14.00
2019-03-30T20:59:07.701Z,14.00
2019-03-30T21:01:38.317Z,13.90
2019-03-30T21:04:05.256Z,13.80
2019-03-30T21:06:32.970Z,13.80
2019-03-30T21:09:00.511Z,13.70
2019-03-30T21:11:28.236Z,13.70
2019-03-30T21:13:56.900Z,13.60
2019-03-30T21:16:24.517Z,13.60
2019-03-30T21:18:52.141Z,13.50
2019-03-30T21:21:19.757Z,13.50
2019-03-30T21:23:47.470Z,13.50
2019-03-30T21:26:15.030Z,13.40
2019-03-30T21:28:42.637Z,13.40
2019-03-30T21:31:10.162Z,13.40
2019-03-30T21:33:38.098Z,13.40
2019-03-30T21:36:05.685Z,13.30
2019-03-30T21:38:33.282Z,13.20
2019-03-30T21:41:00.948Z,13.20
2019-03-30T21:43:31.642Z,13.10
2019-03-30T21:45:59.195Z,13.10
2019-03-30T21:48:26.883Z,13.10
2019-03-30T21:50:54.360Z,13.10
2019-03-30T21:53:22.080Z,13.00
2019-03-30T21:55:49.765Z,13.00
2019-03-30T21:58:17.373Z,13.00
2019-03-30T22:00:45.004Z,13.00
2019-03-30T22:03:12.642Z,13.00
2019-03-30T22:05:40.190Z,12.90
2019-03-30T22:08:07.827Z,12.90
2019-03-30T22:10:35.467Z,12.90
2019-03-30T22:13:03.307Z,12.80
2019-03-30T22:15:30.912Z,12.80
2019-03-30T22:17:58.549Z,12.80
2019-03-30T22:20:26.332Z,12.80
2019-03-30T22:22:54.040Z,12.70
2019-03-30T22:25:21.631Z,12.70
2019-03-30T22:27:49.160Z,12.60
2019-03-30T22:30:24.788Z,12.60
2019-03-30T22:32:46.298Z,12.60
2019-03-30T22:35:13.945Z,12.60
2019-03-30T22:37:41.668Z,12.60
2019-03-30T22:40:09.424Z,12.70
2019-03-30T22:42:36.909Z,12.60
2019-03-30T22:45:05.257Z,12.60
2019-03-30T22:47:32.995Z,12.50
2019-03-30T22:50:00.603Z,12.40
2019-03-30T22:52:28.321Z,12.50
2019-03-30T22:54:55.930Z,12.50
2019-03-30T22:57:23.512Z,12.50
2019-03-30T22:59:51.136Z,12.40
2019-03-30T23:02:18.737Z,12.40
2019-03-30T23:04:46.313Z,12.30
2019-03-30T23:07:13.880Z,12.40
2019-03-30T23:09:41.465Z,12.30
2019-03-30T23:12:09.052Z,12.30
2019-03-30T23:14:36.680Z,12.20
2019-03-30T23:17:04.200Z,12.20
2019-03-30T23:19:31.913Z,12.10
2019-03-30T23:21:59.546Z,12.00
2019-03-30T23:24:27.235Z,12.00
2019-03-30T23:26:54.765Z,11.90
2019-03-30T23:29:22.289Z,11.90
2019-03-30T23:31:49.938Z,11.90
2019-03-30T23:34:17.609Z,11.80
2019-03-30T23:36:45.265Z,11.80
2019-03-30T23:39:13.044Z,11.80
2019-03-30T23:41:40.616Z,11.80
2019-03-30T23:44:08.218Z,11.80
2019-03-30T23:46:35.910Z,11.80
2019-03-30T23:49:03.499Z,11.70
2019-03-30T23:51:31.199Z,11.70
2019-03-30T23:53:58.748Z,11.60
2019-03-30T23:56:26.508Z,11.60
2019-03-30T23:58:54.070Z,11.60
